sensor_id;sensor_type;location;lat;lon;timestamp;P1;durP1;ratioP1;P2;durP2;ratioP2
77740;SDS011;66919;51.006;4.630;2023-02-15T00:00:26;49.97;;;29.10;;
77740;SDS011;66919;51.006;4.630;2023-02-15T00:02:51;48.35;;;28.98;;
77740;SDS011;66919;51.006;4.630;2023-02-15T00:05:17;47.72;;;29.17;;
77740;SDS011;66919;51.006;4.630;2023-02-15T00:07:42;50.95;;;29.23;;
77740;SDS011;66919;51.006;4.630;2023-02-15T00:10:08;47.72;;;29.38;;
77740;SDS011;66919;51.006;4.630;2023-02-15T00:12:34;48.90;;;30.73;;
77740;SDS011;66919;51.006;4.630;2023-02-15T00:14:59;50.42;;;30.23;;
77740;SDS011;66919;51.006;4.630;2023-02-15T00:17:28;53.53;;;29.92;;
77740;SDS011;66919;51.006;4.630;2023-02-15T00:19:54;50.10;;;29.25;;
77740;SDS011;66919;51.006;4.630;2023-02-15T00:22:20;53.58;;;31.67;;
77740;SDS011;66919;51.006;4.630;2023-02-15T00:24:45;46.65;;;29.73;;
77740;SDS011;66919;51.006;4.630;2023-02-15T00:27:11;49.15;;;31.15;;
77740;SDS011;66919;51.006;4.630;2023-02-15T00:29:37;51.53;;;30.92;;
77740;SDS011;66919;51.006;4.630;2023-02-15T00:32:03;54.10;;;31.42;;
77740;SDS011;66919;51.006;4.630;2023-02-15T00:34:28;53.08;;;32.10;;
77740;SDS011;66919;51.006;4.630;2023-02-15T00:36:54;53.30;;;33.38;;
77740;SDS011;66919;51.006;4.630;2023-02-15T00:39:20;50.03;;;31.50;;
77740;SDS011;66919;51.006;4.630;2023-02-15T00:41:46;54.85;;;31.73;;
77740;SDS011;66919;51.006;4.630;2023-02-15T00:44:14;50.80;;;31.20;;
77740;SDS011;66919;51.006;4.630;2023-02-15T00:46:40;56.25;;;34.15;;
77740;SDS011;66919;51.006;4.630;2023-02-15T00:49:06;48.05;;;32.15;;
77740;SDS011;66919;51.006;4.630;2023-02-15T00:51:32;61.42;;;35.03;;
77740;SDS011;66919;51.006;4.630;2023-02-15T00:53:57;51.83;;;32.63;;
77740;SDS011;66919;51.006;4.630;2023-02-15T00:56:23;56.72;;;33.28;;
77740;SDS011;66919;51.006;4.630;2023-02-15T00:58:49;56.70;;;33.45;;
77740;SDS011;66919;51.006;4.630;2023-02-15T01:01:16;57.05;;;32.60;;
77740;SDS011;66919;51.006;4.630;2023-02-15T01:03:43;58.03;;;35.00;;
77740;SDS011;66919;51.006;4.630;2023-02-15T01:06:09;53.08;;;33.35;;
77740;SDS011;66919;51.006;4.630;2023-02-15T01:08:36;55.35;;;35.00;;
77740;SDS011;66919;51.006;4.630;2023-02-15T01:11:09;59.78;;;37.28;;
77740;SDS011;66919;51.006;4.630;2023-02-15T01:13:36;66.40;;;37.40;;
77740;SDS011;66919;51.006;4.630;2023-02-15T01:16:02;65.15;;;36.85;;
77740;SDS011;66919;51.006;4.630;2023-02-15T01:18:29;64.63;;;37.80;;
77740;SDS011;66919;51.006;4.630;2023-02-15T01:20:55;63.55;;;37.85;;
77740;SDS011;66919;51.006;4.630;2023-02-15T01:23:21;58.28;;;36.55;;
77740;SDS011;66919;51.006;4.630;2023-02-15T01:25:46;58.75;;;35.38;;
77740;SDS011;66919;51.006;4.630;2023-02-15T01:28:12;58.97;;;36.33;;
77740;SDS011;66919;51.006;4.630;2023-02-15T01:30:38;60.42;;;36.50;;
77740;SDS011;66919;51.006;4.630;2023-02-15T01:33:03;56.53;;;35.50;;
77740;SDS011;66919;51.006;4.630;2023-02-15T01:35:29;55.50;;;34.63;;
77740;SDS011;66919;51.006;4.630;2023-02-15T01:37:55;63.10;;;36.10;;
77740;SDS011;66919;51.006;4.630;2023-02-15T01:40:22;54.30;;;34.83;;
77740;SDS011;66919;51.006;4.630;2023-02-15T01:42:52;63.42;;;36.15;;
77740;SDS011;66919;51.006;4.630;2023-02-15T01:50:21;62.95;;;34.95;;
77740;SDS011;66919;51.006;4.630;2023-02-15T01:53:06;57.47;;;35.00;;
77740;SDS011;66919;51.006;4.630;2023-02-15T01:55:47;57.53;;;34.28;;
77740;SDS011;66919;51.006;4.630;2023-02-15T01:58:16;55.38;;;36.42;;
77740;SDS011;66919;51.006;4.630;2023-02-15T02:00:43;62.50;;;38.13;;
77740;SDS011;66919;51.006;4.630;2023-02-15T02:03:09;61.22;;;37.13;;
77740;SDS011;66919;51.006;4.630;2023-02-15T02:05:35;65.38;;;37.53;;
77740;SDS011;66919;51.006;4.630;2023-02-15T02:08:02;59.80;;;34.80;;
77740;SDS011;66919;51.006;4.630;2023-02-15T02:10:28;63.05;;;35.55;;
77740;SDS011;66919;51.006;4.630;2023-02-15T02:12:56;61.53;;;37.78;;
77740;SDS011;66919;51.006;4.630;2023-02-15T02:16:00;61.72;;;37.65;;
77740;SDS011;66919;51.006;4.630;2023-02-15T02:18:41;64.10;;;39.88;;
77740;SDS011;66919;51.006;4.630;2023-02-15T02:21:51;64.45;;;37.22;;
77740;SDS011;66919;51.006;4.630;2023-02-15T02:27:39;65.57;;;37.88;;
77740;SDS011;66919;51.006;4.630;2023-02-15T02:30:27;56.55;;;36.05;;
77740;SDS011;66919;51.006;4.630;2023-02-15T02:33:09;61.38;;;37.65;;
77740;SDS011;66919;51.006;4.630;2023-02-15T02:38:57;78.35;;;43.22;;
77740;SDS011;66919;51.006;4.630;2023-02-15T02:49:39;67.57;;;40.05;;
77740;SDS011;66919;51.006;4.630;2023-02-15T02:52:07;74.15;;;40.60;;
77740;SDS011;66919;51.006;4.630;2023-02-15T02:54:57;71.63;;;41.72;;
77740;SDS011;66919;51.006;4.630;2023-02-15T02:57:24;68.63;;;41.33;;
77740;SDS011;66919;51.006;4.630;2023-02-15T02:59:52;71.63;;;41.90;;
77740;SDS011;66919;51.006;4.630;2023-02-15T03:02:21;64.00;;;39.22;;
77740;SDS011;66919;51.006;4.630;2023-02-15T03:04:57;71.03;;;41.40;;
77740;SDS011;66919;51.006;4.630;2023-02-15T03:07:31;67.45;;;38.90;;
77740;SDS011;66919;51.006;4.630;2023-02-15T03:09:59;69.97;;;40.35;;
77740;SDS011;66919;51.006;4.630;2023-02-15T03:12:28;69.03;;;38.60;;
77740;SDS011;66919;51.006;4.630;2023-02-15T03:15:04;68.28;;;39.03;;
77740;SDS011;66919;51.006;4.630;2023-02-15T03:17:31;73.97;;;42.27;;
77740;SDS011;66919;51.006;4.630;2023-02-15T03:20:00;64.85;;;37.20;;
77740;SDS011;66919;51.006;4.630;2023-02-15T03:25:26;69.15;;;40.17;;
77740;SDS011;66919;51.006;4.630;2023-02-15T03:30:32;61.63;;;37.30;;
77740;SDS011;66919;51.006;4.630;2023-02-15T03:33:01;63.58;;;38.63;;
77740;SDS011;66919;51.006;4.630;2023-02-15T03:35:31;64.55;;;39.63;;
77740;SDS011;66919;51.006;4.630;2023-02-15T03:38:04;70.80;;;39.22;;
77740;SDS011;66919;51.006;4.630;2023-02-15T03:40:37;69.13;;;40.33;;
77740;SDS011;66919;51.006;4.630;2023-02-15T03:45:59;69.05;;;40.53;;
77740;SDS011;66919;51.006;4.630;2023-02-15T03:48:32;71.82;;;38.42;;
77740;SDS011;66919;51.006;4.630;2023-02-15T03:51:20;65.63;;;39.83;;
77740;SDS011;66919;51.006;4.630;2023-02-15T03:54:04;69.72;;;39.65;;
77740;SDS011;66919;51.006;4.630;2023-02-15T03:56:36;77.78;;;41.05;;
77740;SDS011;66919;51.006;4.630;2023-02-15T03:59:03;69.32;;;39.33;;
77740;SDS011;66919;51.006;4.630;2023-02-15T04:01:56;72.85;;;40.38;;
77740;SDS011;66919;51.006;4.630;2023-02-15T04:04:26;60.78;;;37.88;;
77740;SDS011;66919;51.006;4.630;2023-02-15T04:07:05;67.50;;;37.95;;
77740;SDS011;66919;51.006;4.630;2023-02-15T04:09:32;66.47;;;39.38;;
77740;SDS011;66919;51.006;4.630;2023-02-15T04:12:16;68.33;;;38.63;;
77740;SDS011;66919;51.006;4.630;2023-02-15T04:14:42;64.55;;;38.53;;
77740;SDS011;66919;51.006;4.630;2023-02-15T04:17:27;66.97;;;37.83;;
77740;SDS011;66919;51.006;4.630;2023-02-15T04:19:52;60.83;;;36.55;;
77740;SDS011;66919;51.006;4.630;2023-02-15T04:22:36;65.60;;;37.92;;
77740;SDS011;66919;51.006;4.630;2023-02-15T04:25:20;70.72;;;38.85;;
77740;SDS011;66919;51.006;4.630;2023-02-15T04:27:50;61.95;;;38.20;;
77740;SDS011;66919;51.006;4.630;2023-02-15T04:30:18;63.22;;;38.38;;
77740;SDS011;66919;51.006;4.630;2023-02-15T04:32:46;63.75;;;38.42;;
77740;SDS011;66919;51.006;4.630;2023-02-15T04:35:12;63.75;;;39.70;;
77740;SDS011;66919;51.006;4.630;2023-02-15T04:37:39;66.68;;;37.25;;
77740;SDS011;66919;51.006;4.630;2023-02-15T04:40:06;63.58;;;38.00;;
77740;SDS011;66919;51.006;4.630;2023-02-15T04:42:33;63.58;;;37.90;;
77740;SDS011;66919;51.006;4.630;2023-02-15T04:44:58;63.70;;;37.53;;
77740;SDS011;66919;51.006;4.630;2023-02-15T04:47:24;66.25;;;39.20;;
77740;SDS011;66919;51.006;4.630;2023-02-15T04:49:50;66.85;;;37.50;;
77740;SDS011;66919;51.006;4.630;2023-02-15T04:52:16;66.22;;;36.13;;
77740;SDS011;66919;51.006;4.630;2023-02-15T04:54:44;64.90;;;37.70;;
77740;SDS011;66919;51.006;4.630;2023-02-15T04:57:10;62.08;;;37.30;;
77740;SDS011;66919;51.006;4.630;2023-02-15T04:59:36;66.63;;;39.90;;
77740;SDS011;66919;51.006;4.630;2023-02-15T05:02:02;64.93;;;39.17;;
77740;SDS011;66919;51.006;4.630;2023-02-15T05:04:27;60.85;;;37.83;;
77740;SDS011;66919;51.006;4.630;2023-02-15T05:06:53;57.05;;;35.05;;
77740;SDS011;66919;51.006;4.630;2023-02-15T05:09:19;60.95;;;36.33;;
77740;SDS011;66919;51.006;4.630;2023-02-15T05:11:44;61.15;;;38.55;;
77740;SDS011;66919;51.006;4.630;2023-02-15T05:14:10;62.58;;;37.88;;
77740;SDS011;66919;51.006;4.630;2023-02-15T05:16:36;66.05;;;37.47;;
77740;SDS011;66919;51.006;4.630;2023-02-15T05:19:02;69.20;;;43.03;;
77740;SDS011;66919;51.006;4.630;2023-02-15T05:21:27;71.47;;;40.97;;
77740;SDS011;66919;51.006;4.630;2023-02-15T05:23:53;63.58;;;38.88;;
77740;SDS011;66919;51.006;4.630;2023-02-15T05:26:20;69.13;;;40.90;;
77740;SDS011;66919;51.006;4.630;2023-02-15T05:29:05;66.60;;;39.60;;
77740;SDS011;66919;51.006;4.630;2023-02-15T05:31:31;70.10;;;40.28;;
77740;SDS011;66919;51.006;4.630;2023-02-15T05:33:57;62.55;;;37.30;;
77740;SDS011;66919;51.006;4.630;2023-02-15T05:36:23;67.70;;;37.20;;
77740;SDS011;66919;51.006;4.630;2023-02-15T05:38:49;68.00;;;36.45;;
77740;SDS011;66919;51.006;4.630;2023-02-15T05:41:14;65.50;;;38.42;;
77740;SDS011;66919;51.006;4.630;2023-02-15T05:43:41;66.40;;;38.25;;
77740;SDS011;66919;51.006;4.630;2023-02-15T05:46:07;61.83;;;38.22;;
77740;SDS011;66919;51.006;4.630;2023-02-15T05:48:33;67.68;;;38.20;;
77740;SDS011;66919;51.006;4.630;2023-02-15T05:51:00;70.47;;;41.33;;
77740;SDS011;66919;51.006;4.630;2023-02-15T05:53:26;66.45;;;36.92;;
77740;SDS011;66919;51.006;4.630;2023-02-15T05:55:53;68.38;;;39.20;;
77740;SDS011;66919;51.006;4.630;2023-02-15T05:58:23;72.68;;;40.42;;
77740;SDS011;66919;51.006;4.630;2023-02-15T06:00:51;74.93;;;38.45;;
77740;SDS011;66919;51.006;4.630;2023-02-15T06:03:16;69.10;;;39.22;;
77740;SDS011;66919;51.006;4.630;2023-02-15T06:05:42;65.82;;;38.13;;
77740;SDS011;66919;51.006;4.630;2023-02-15T06:08:07;71.63;;;37.80;;
77740;SDS011;66919;51.006;4.630;2023-02-15T06:10:33;68.43;;;38.85;;
77740;SDS011;66919;51.006;4.630;2023-02-15T06:12:59;76.63;;;42.00;;
77740;SDS011;66919;51.006;4.630;2023-02-15T06:15:24;72.65;;;42.10;;
77740;SDS011;66919;51.006;4.630;2023-02-15T06:17:50;72.18;;;40.15;;
77740;SDS011;66919;51.006;4.630;2023-02-15T06:20:16;80.55;;;41.58;;
77740;SDS011;66919;51.006;4.630;2023-02-15T06:22:42;77.65;;;40.88;;
77740;SDS011;66919;51.006;4.630;2023-02-15T06:25:08;77.60;;;41.03;;
77740;SDS011;66919;51.006;4.630;2023-02-15T06:27:35;104.55;;;87.30;;
77740;SDS011;66919;51.006;4.630;2023-02-15T06:30:00;74.55;;;42.47;;
77740;SDS011;66919;51.006;4.630;2023-02-15T06:32:26;74.55;;;42.28;;
77740;SDS011;66919;51.006;4.630;2023-02-15T06:34:52;73.43;;;41.92;;
77740;SDS011;66919;51.006;4.630;2023-02-15T06:37:18;69.10;;;41.08;;
77740;SDS011;66919;51.006;4.630;2023-02-15T06:39:43;77.15;;;39.72;;
77740;SDS011;66919;51.006;4.630;2023-02-15T06:42:09;62.60;;;39.85;;
77740;SDS011;66919;51.006;4.630;2023-02-15T06:44:35;74.40;;;41.58;;
77740;SDS011;66919;51.006;4.630;2023-02-15T06:47:00;80.35;;;44.58;;
77740;SDS011;66919;51.006;4.630;2023-02-15T06:49:26;70.60;;;42.13;;
77740;SDS011;66919;51.006;4.630;2023-02-15T06:51:51;88.53;;;43.60;;
77740;SDS011;66919;51.006;4.630;2023-02-15T06:54:17;82.15;;;42.17;;
77740;SDS011;66919;51.006;4.630;2023-02-15T06:56:43;71.78;;;41.15;;
77740;SDS011;66919;51.006;4.630;2023-02-15T06:59:09;79.30;;;40.90;;
77740;SDS011;66919;51.006;4.630;2023-02-15T07:01:35;73.13;;;40.13;;
77740;SDS011;66919;51.006;4.630;2023-02-15T07:04:02;87.22;;;41.15;;
77740;SDS011;66919;51.006;4.630;2023-02-15T07:06:30;87.18;;;42.08;;
77740;SDS011;66919;51.006;4.630;2023-02-15T07:08:59;87.15;;;45.97;;
77740;SDS011;66919;51.006;4.630;2023-02-15T07:11:25;89.70;;;42.30;;
77740;SDS011;66919;51.006;4.630;2023-02-15T07:14:10;85.10;;;41.92;;
77740;SDS011;66919;51.006;4.630;2023-02-15T07:16:35;75.00;;;38.85;;
77740;SDS011;66919;51.006;4.630;2023-02-15T07:19:01;67.25;;;40.22;;
77740;SDS011;66919;51.006;4.630;2023-02-15T07:21:27;79.20;;;42.80;;
77740;SDS011;66919;51.006;4.630;2023-02-15T07:23:55;75.75;;;41.15;;
77740;SDS011;66919;51.006;4.630;2023-02-15T07:26:22;68.95;;;39.13;;
77740;SDS011;66919;51.006;4.630;2023-02-15T07:28:48;69.50;;;39.13;;
77740;SDS011;66919;51.006;4.630;2023-02-15T07:31:14;76.45;;;41.17;;
77740;SDS011;66919;51.006;4.630;2023-02-15T07:33:39;73.93;;;38.83;;
77740;SDS011;66919;51.006;4.630;2023-02-15T07:36:06;66.70;;;36.65;;
77740;SDS011;66919;51.006;4.630;2023-02-15T07:38:38;77.43;;;38.70;;
77740;SDS011;66919;51.006;4.630;2023-02-15T07:41:06;65.82;;;38.83;;
77740;SDS011;66919;51.006;4.630;2023-02-15T07:43:34;68.35;;;37.92;;
77740;SDS011;66919;51.006;4.630;2023-02-15T07:46:02;73.57;;;37.65;;
77740;SDS011;66919;51.006;4.630;2023-02-15T07:48:29;70.10;;;38.75;;
77740;SDS011;66919;51.006;4.630;2023-02-15T07:50:58;76.90;;;38.60;;
77740;SDS011;66919;51.006;4.630;2023-02-15T07:53:24;70.38;;;38.53;;
77740;SDS011;66919;51.006;4.630;2023-02-15T07:55:50;75.80;;;40.58;;
77740;SDS011;66919;51.006;4.630;2023-02-15T07:58:17;80.93;;;39.47;;
77740;SDS011;66919;51.006;4.630;2023-02-15T08:00:43;77.80;;;39.08;;
77740;SDS011;66919;51.006;4.630;2023-02-15T08:03:25;66.72;;;37.67;;
77740;SDS011;66919;51.006;4.630;2023-02-15T08:05:58;77.50;;;40.00;;
77740;SDS011;66919;51.006;4.630;2023-02-15T08:08:25;75.40;;;38.55;;
77740;SDS011;66919;51.006;4.630;2023-02-15T08:11:17;83.85;;;41.00;;
77740;SDS011;66919;51.006;4.630;2023-02-15T08:16:21;74.82;;;39.13;;
77740;SDS011;66919;51.006;4.630;2023-02-15T08:18:48;66.10;;;36.08;;
77740;SDS011;66919;51.006;4.630;2023-02-15T08:21:13;66.45;;;38.67;;
77740;SDS011;66919;51.006;4.630;2023-02-15T08:23:39;69.70;;;36.22;;
77740;SDS011;66919;51.006;4.630;2023-02-15T08:26:05;62.75;;;37.75;;
77740;SDS011;66919;51.006;4.630;2023-02-15T08:28:30;67.30;;;37.90;;
77740;SDS011;66919;51.006;4.630;2023-02-15T08:31:03;72.68;;;38.58;;
77740;SDS011;66919;51.006;4.630;2023-02-15T08:33:30;73.63;;;40.40;;
77740;SDS011;66919;51.006;4.630;2023-02-15T08:35:56;71.30;;;37.95;;
77740;SDS011;66919;51.006;4.630;2023-02-15T08:38:21;67.47;;;36.85;;
77740;SDS011;66919;51.006;4.630;2023-02-15T08:40:47;63.05;;;38.15;;
77740;SDS011;66919;51.006;4.630;2023-02-15T08:43:13;67.38;;;37.88;;
77740;SDS011;66919;51.006;4.630;2023-02-15T08:45:38;68.68;;;37.85;;
77740;SDS011;66919;51.006;4.630;2023-02-15T08:48:04;66.05;;;35.90;;
77740;SDS011;66919;51.006;4.630;2023-02-15T08:50:29;64.15;;;35.67;;
77740;SDS011;66919;51.006;4.630;2023-02-15T08:52:55;63.50;;;34.38;;
77740;SDS011;66919;51.006;4.630;2023-02-15T08:55:21;56.90;;;30.67;;
77740;SDS011;66919;51.006;4.630;2023-02-15T08:57:46;57.67;;;32.40;;
77740;SDS011;66919;51.006;4.630;2023-02-15T09:00:13;53.85;;;31.42;;
77740;SDS011;66919;51.006;4.630;2023-02-15T09:02:39;49.92;;;30.05;;
77740;SDS011;66919;51.006;4.630;2023-02-15T09:05:04;53.50;;;30.35;;
77740;SDS011;66919;51.006;4.630;2023-02-15T09:07:30;51.80;;;29.33;;
77740;SDS011;66919;51.006;4.630;2023-02-15T09:09:56;50.70;;;30.55;;
77740;SDS011;66919;51.006;4.630;2023-02-15T09:12:21;57.65;;;30.65;;
77740;SDS011;66919;51.006;4.630;2023-02-15T09:14:47;52.33;;;30.33;;
77740;SDS011;66919;51.006;4.630;2023-02-15T09:17:13;51.45;;;31.35;;
77740;SDS011;66919;51.006;4.630;2023-02-15T09:19:38;56.67;;;31.48;;
77740;SDS011;66919;51.006;4.630;2023-02-15T09:22:04;53.55;;;30.17;;
77740;SDS011;66919;51.006;4.630;2023-02-15T09:24:31;57.20;;;30.48;;
77740;SDS011;66919;51.006;4.630;2023-02-15T09:26:58;52.53;;;28.65;;
77740;SDS011;66919;51.006;4.630;2023-02-15T09:29:24;53.05;;;29.20;;
77740;SDS011;66919;51.006;4.630;2023-02-15T09:31:50;50.20;;;29.05;;
77740;SDS011;66919;51.006;4.630;2023-02-15T09:34:17;51.97;;;28.92;;
77740;SDS011;66919;51.006;4.630;2023-02-15T09:36:45;47.80;;;28.02;;
77740;SDS011;66919;51.006;4.630;2023-02-15T09:39:15;44.42;;;27.58;;
77740;SDS011;66919;51.006;4.630;2023-02-15T09:55:34;49.40;;;28.75;;
77740;SDS011;66919;51.006;4.630;2023-02-15T10:01:18;52.03;;;28.05;;
77740;SDS011;66919;51.006;4.630;2023-02-15T10:04:05;52.75;;;27.77;;
77740;SDS011;66919;51.006;4.630;2023-02-15T10:12:44;46.15;;;26.00;;
77740;SDS011;66919;51.006;4.630;2023-02-15T10:20:55;39.78;;;23.20;;
77740;SDS011;66919;51.006;4.630;2023-02-15T10:29:07;40.80;;;24.25;;
77740;SDS011;66919;51.006;4.630;2023-02-15T10:31:48;40.15;;;23.27;;
77740;SDS011;66919;51.006;4.630;2023-02-15T10:34:18;42.20;;;23.85;;
77740;SDS011;66919;51.006;4.630;2023-02-15T11:06:49;40.20;;;21.00;;
77740;SDS011;66919;51.006;4.630;2023-02-15T11:09:18;40.10;;;22.42;;
77740;SDS011;66919;51.006;4.630;2023-02-15T11:11:48;37.50;;;22.52;;
77740;SDS011;66919;51.006;4.630;2023-02-15T11:17:08;44.30;;;22.25;;
77740;SDS011;66919;51.006;4.630;2023-02-15T11:19:38;39.47;;;21.77;;
77740;SDS011;66919;51.006;4.630;2023-02-15T11:22:12;50.35;;;27.17;;
77740;SDS011;66919;51.006;4.630;2023-02-15T11:24:44;44.88;;;24.33;;
77740;SDS011;66919;51.006;4.630;2023-02-15T11:32:41;38.28;;;22.50;;
77740;SDS011;66919;51.006;4.630;2023-02-15T11:40:35;39.97;;;23.95;;
77740;SDS011;66919;51.006;4.630;2023-02-15T11:43:04;41.13;;;22.83;;
77740;SDS011;66919;51.006;4.630;2023-02-15T11:45:54;48.75;;;21.98;;
77740;SDS011;66919;51.006;4.630;2023-02-15T11:48:20;52.30;;;22.63;;
77740;SDS011;66919;51.006;4.630;2023-02-15T11:50:46;47.53;;;21.70;;
77740;SDS011;66919;51.006;4.630;2023-02-15T11:53:15;44.30;;;22.50;;
77740;SDS011;66919;51.006;4.630;2023-02-15T11:55:43;40.70;;;23.67;;
77740;SDS011;66919;51.006;4.630;2023-02-15T12:01:19;36.60;;;21.05;;
77740;SDS011;66919;51.006;4.630;2023-02-15T12:03:46;46.00;;;22.33;;
77740;SDS011;66919;51.006;4.630;2023-02-15T12:09:02;37.70;;;21.90;;
77740;SDS011;66919;51.006;4.630;2023-02-15T12:12:20;41.78;;;22.27;;
77740;SDS011;66919;51.006;4.630;2023-02-15T12:14:52;40.72;;;21.83;;
77740;SDS011;66919;51.006;4.630;2023-02-15T12:18:01;73.88;;;25.42;;
77740;SDS011;66919;51.006;4.630;2023-02-15T12:22:51;39.50;;;22.15;;
77740;SDS011;66919;51.006;4.630;2023-02-15T12:25:29;50.75;;;29.67;;
77740;SDS011;66919;51.006;4.630;2023-02-15T12:28:02;37.47;;;21.83;;
77740;SDS011;66919;51.006;4.630;2023-02-15T12:30:30;40.45;;;22.70;;
77740;SDS011;66919;51.006;4.630;2023-02-15T12:35:33;40.35;;;22.55;;
77740;SDS011;66919;51.006;4.630;2023-02-15T12:40:36;42.92;;;22.10;;
77740;SDS011;66919;51.006;4.630;2023-02-15T12:43:03;41.40;;;22.08;;
77740;SDS011;66919;51.006;4.630;2023-02-15T12:45:34;41.83;;;21.40;;
77740;SDS011;66919;51.006;4.630;2023-02-15T12:50:33;41.60;;;22.23;;
77740;SDS011;66919;51.006;4.630;2023-02-15T12:53:06;54.60;;;22.48;;
77740;SDS011;66919;51.006;4.630;2023-02-15T12:55:37;39.55;;;22.50;;
77740;SDS011;66919;51.006;4.630;2023-02-15T13:00:45;44.30;;;23.13;;
77740;SDS011;66919;51.006;4.630;2023-02-15T13:03:18;46.70;;;23.13;;
77740;SDS011;66919;51.006;4.630;2023-02-15T13:05:48;48.75;;;22.48;;
77740;SDS011;66919;51.006;4.630;2023-02-15T13:08:33;45.80;;;23.85;;
77740;SDS011;66919;51.006;4.630;2023-02-15T13:11:08;64.20;;;24.92;;
77740;SDS011;66919;51.006;4.630;2023-02-15T13:17:09;44.80;;;24.30;;
